Time;durP1;ratioP1;P1;durP2;ratioP2;P2;SDS_P1;SDS_P2;PMS_P1;PMS_P2;Temp;Humidity;BMP_temperature;BMP_pressure;BME280_temperature;BME280_humidity;BME280_pressure;Samples;Min_cycle;Max_cycle;Signal;HPM_P1;HPM_P2
2022/06/24 00:00:37;;;;;;;6.63;2.75;;;23.20;66.50;;;;;;5055635;28;20064;-66
2022/06/24 00:03:05;;;;;;;7.88;2.28;;;23.10;66.70;;;;;;5058957;28;20374;-69
2022/06/24 00:05:35;;;;;;;3.05;1.90;;;23.10;66.80;;;;;;5058712;28;20041;-68
2022/06/24 00:08:06;;;;;;;5.00;1.88;;;23.10;66.80;;;;;;5058878;28;20040;-70
2022/06/24 00:10:35;;;;;;;3.50;2.20;;;23.10;66.70;;;;;;5057426;28;20046;-65
2022/06/24 00:13:05;;;;;;;5.47;1.98;;;23.10;66.70;;;;;;5059605;28;20103;-65
2022/06/24 00:15:33;;;;;;;4.88;2.05;;;23.10;66.70;;;;;;5060113;28;20116;-68
2022/06/24 00:18:12;;;;;;;5.45;2.10;;;23.20;66.70;;;;;;5059512;28;20041;-70
2022/06/24 00:20:43;;;;;;;3.95;1.90;;;23.20;66.60;;;;;;5060706;28;20048;-69
2022/06/24 00:23:12;;;;;;;6.80;1.70;;;23.20;66.60;;;;;;5052474;28;20098;-71
2022/06/24 00:25:39;;;;;;;7.88;1.95;;;23.10;66.20;;;;;;5058582;28;20049;-69
2022/06/24 00:28:09;;;;;;;6.78;1.95;;;23.20;65.70;;;;;;5058166;28;20055;-67
2022/06/24 00:30:37;;;;;;;5.45;1.50;;;23.30;65.20;;;;;;5059649;28;20048;-67
2022/06/24 00:33:13;;;;;;;5.80;1.98;;;23.30;64.80;;;;;;5069102;28;20509;-67
2022/06/24 00:35:41;;;;;;;7.63;1.55;;;23.30;64.30;;;;;;5046897;28;20052;-66
2022/06/24 00:38:28;;;;;;;4.47;1.27;;;23.30;63.90;;;;;;5044100;28;20046;-65
2022/06/24 00:40:57;;;;;;;4.35;1.55;;;23.30;63.60;;;;;;5049389;28;20049;-69
2022/06/24 00:43:30;;;;;;;10.10;1.95;;;23.20;63.20;;;;;;5051692;28;20429;-68
2022/06/24 00:46:04;;;;;;;4.13;0.98;;;23.20;63.10;;;;;;5056794;28;20052;-66
2022/06/24 00:48:35;;;;;;;5.88;0.98;;;23.20;62.90;;;;;;5057621;28;20048;-68
2022/06/24 00:51:03;;;;;;;2.38;1.08;;;23.20;62.80;;;;;;5055608;28;20049;-69
2022/06/24 00:53:30;;;;;;;7.10;1.35;;;23.30;62.50;;;;;;5055862;28;20044;-67
2022/06/24 00:55:57;;;;;;;2.53;0.93;;;23.40;61.40;;;;;;5056563;28;20067;-67
2022/06/24 00:58:25;;;;;;;4.45;1.10;;;23.30;61.30;;;;;;5058030;28;20048;-66
2022/06/24 01:00:54;;;;;;;2.67;0.60;;;23.30;61.10;;;;;;5052646;28;20047;-71
2022/06/24 01:03:36;;;;;;;5.38;1.10;;;23.20;61.30;;;;;;5056879;28;20129;-70
2022/06/24 01:06:04;;;;;;;8.35;0.95;;;23.20;61.60;;;;;;5051695;28;20135;-68
2022/06/24 01:08:31;;;;;;;3.15;0.70;;;23.10;61.90;;;;;;5054684;28;20516;-68
2022/06/24 01:10:57;;;;;;;2.70;0.82;;;23.10;62.00;;;;;;5056869;28;20067;-67
2022/06/24 01:13:25;;;;;;;4.00;0.82;;;23.10;62.10;;;;;;5056907;28;20056;-68
2022/06/24 01:15:53;;;;;;;4.97;0.73;;;23.00;62.30;;;;;;5057439;28;20048;-69
2022/06/24 01:18:20;;;;;;;3.30;0.80;;;23.00;62.60;;;;;;5058242;28;21002;-69
2022/06/24 01:20:47;;;;;;;4.25;0.80;;;22.90;62.60;;;;;;5057055;28;20079;-66
2022/06/24 01:23:24;;;;;;;3.33;0.90;;;23.00;62.60;;;;;;5056738;28;20056;-68
2022/06/24 01:25:51;;;;;;;5.32;0.90;;;22.90;62.90;;;;;;5056409;28;20044;-69
2022/06/24 01:28:18;;;;;;;6.15;0.98;;;22.90;63.00;;;;;;5057841;28;20143;-67
2022/06/24 01:30:45;;;;;;;9.63;0.95;;;22.90;63.20;;;;;;5057516;28;20504;-69
2022/06/24 01:33:12;;;;;;;5.72;1.08;;;22.90;63.40;;;;;;5056722;28;20052;-68
2022/06/24 01:35:38;;;;;;;6.78;1.05;;;22.80;63.70;;;;;;5051321;28;20052;-66
2022/06/24 01:38:06;;;;;;;4.22;0.98;;;22.80;63.80;;;;;;5052202;28;20807;-68
2022/06/24 01:40:34;;;;;;;3.60;0.65;;;22.80;63.80;;;;;;5050604;28;20506;-67
2022/06/24 01:43:02;;;;;;;5.13;0.90;;;22.80;63.60;;;;;;5047035;28;20047;-67
2022/06/24 01:45:29;;;;;;;2.67;0.68;;;22.90;63.70;;;;;;5047255;28;20040;-67
2022/06/24 01:47:56;;;;;;;2.83;0.68;;;22.80;63.80;;;;;;5044707;28;20071;-71
2022/06/24 01:50:23;;;;;;;3.58;0.65;;;22.80;63.80;;;;;;5045521;28;20542;-65
2022/06/24 01:52:50;;;;;;;3.33;0.80;;;22.80;63.80;;;;;;5047122;28;20049;-70
2022/06/24 01:55:17;;;;;;;3.20;0.80;;;22.80;63.70;;;;;;5042501;28;20365;-71
2022/06/24 01:57:45;;;;;;;2.63;0.60;;;22.90;63.70;;;;;;5044512;28;20693;-70
2022/06/24 02:00:14;;;;;;;9.93;0.93;;;22.90;63.80;;;;;;5045778;28;20048;-66
2022/06/24 02:02:41;;;;;;;4.03;0.90;;;22.80;63.90;;;;;;5051159;28;20531;-68
2022/06/24 02:05:09;;;;;;;2.03;0.70;;;22.80;64.00;;;;;;5049135;28;20916;-69
2022/06/24 02:07:36;;;;;;;5.93;1.25;;;22.70;64.20;;;;;;5042733;28;20040;-69
2022/06/24 02:15:33;;;;;;;5.13;0.80;;;22.60;64.80;;;;;;5051121;28;20094;-69
2022/06/24 02:18:00;;;;;;;4.65;0.93;;;22.60;64.90;;;;;;5050579;28;20453;-70
2022/06/24 02:20:28;;;;;;;4.60;0.60;;;22.70;64.90;;;;;;5045686;28;20053;-66
2022/06/24 02:22:55;;;;;;;1.80;0.57;;;22.70;64.80;;;;;;5044179;28;20057;-69
2022/06/24 02:25:21;;;;;;;2.10;0.60;;;22.70;64.70;;;;;;5047627;28;20157;-68
2022/06/24 02:27:50;;;;;;;1.58;0.73;;;22.70;64.90;;;;;;5046343;28;20047;-67
2022/06/24 02:30:17;;;;;;;1.85;0.73;;;22.70;64.90;;;;;;5044501;28;20044;-71
2022/06/24 02:32:44;;;;;;;3.92;1.05;;;22.80;64.80;;;;;;5037523;28;20045;-70
2022/06/24 02:35:11;;;;;;;6.72;0.85;;;22.80;64.90;;;;;;5043657;28;20496;-69
2022/06/24 02:37:38;;;;;;;4.45;1.17;;;22.80;65.00;;;;;;5051659;28;20069;-69
2022/06/24 02:42:47;;;;;;;4.82;1.08;;;22.80;65.00;;;;;;5044277;28;20046;-70
2022/06/24 02:45:15;;;;;;;7.85;1.02;;;22.80;64.90;;;;;;5054373;28;21940;-69
2022/06/24 02:47:42;;;;;;;3.70;1.00;;;22.70;65.20;;;;;;5048526;28;20502;-68
2022/06/24 02:50:09;;;;;;;4.47;0.82;;;22.60;65.60;;;;;;5046144;28;20048;-69
2022/06/24 02:52:36;;;;;;;3.22;0.95;;;22.60;65.80;;;;;;5050336;28;20052;-69
2022/06/24 02:55:04;;;;;;;2.65;0.88;;;22.60;65.80;;;;;;5053070;28;20056;-66
2022/06/24 02:57:31;;;;;;;3.85;1.58;;;22.60;65.80;;;;;;5038352;28;20055;-68
2022/06/24 02:59:58;;;;;;;3.30;0.70;;;22.60;65.80;;;;;;5040805;28;20377;-67
2022/06/24 03:02:26;;;;;;;3.15;0.65;;;22.60;65.90;;;;;;5048041;28;20056;-71
2022/06/24 03:04:53;;;;;;;2.38;0.90;;;22.60;66.20;;;;;;5058297;28;20064;-68
2022/06/24 03:07:20;;;;;;;5.38;1.13;;;22.60;68.30;;;;;;5054157;28;20407;-70
2022/06/24 03:09:47;;;;;;;4.50;0.95;;;22.40;70.60;;;;;;5050295;28;20431;-65
2022/06/24 03:12:14;;;;;;;12.88;1.63;;;22.20;72.80;;;;;;5051904;28;20453;-70
2022/06/24 03:14:41;;;;;;;8.77;1.75;;;22.10;74.30;;;;;;5051364;28;20057;-69
2022/06/24 03:17:08;;;;;;;9.23;1.42;;;22.10;75.00;;;;;;5061013;28;20044;-69
2022/06/24 03:19:36;;;;;;;7.13;1.25;;;22.10;75.40;;;;;;5061864;28;20044;-67
2022/06/24 03:22:04;;;;;;;6.72;1.17;;;22.10;75.60;;;;;;5049577;28;20087;-70
2022/06/24 03:24:31;;;;;;;7.35;1.10;;;22.00;76.10;;;;;;5049300;28;20649;-66
2022/06/24 03:26:58;;;;;;;5.82;0.85;;;21.90;76.60;;;;;;5047846;28;20441;-68
2022/06/24 03:29:25;;;;;;;5.15;1.08;;;21.90;76.80;;;;;;5053806;28;20045;-68
2022/06/24 03:31:52;;;;;;;6.50;1.27;;;21.80;77.00;;;;;;5049928;28;20052;-69
2022/06/24 03:34:18;;;;;;;2.53;0.95;;;21.80;76.80;;;;;;5054785;28;20140;-69
2022/06/24 03:36:47;;;;;;;9.77;1.48;;;21.80;77.00;;;;;;5047562;28;20049;-70
2022/06/24 03:39:14;;;;;;;10.10;2.28;;;21.70;77.10;;;;;;5050566;28;20056;-68
2022/06/24 03:41:41;;;;;;;12.98;1.40;;;21.80;76.80;;;;;;5048305;28;20794;-66
2022/06/24 03:44:08;;;;;;;3.75;0.90;;;21.80;76.40;;;;;;5046408;28;20144;-67
2022/06/24 03:46:35;;;;;;;5.40;1.48;;;21.80;76.60;;;;;;5048640;28;20039;-67
2022/06/24 03:49:05;;;;;;;8.52;1.85;;;21.80;76.90;;;;;;5049515;28;20036;-67
2022/06/24 03:51:32;;;;;;;5.35;1.05;;;21.70;77.30;;;;;;5046931;28;20048;-70
2022/06/24 03:54:00;;;;;;;4.68;1.13;;;21.70;77.70;;;;;;5046893;28;20114;-68
2022/06/24 03:56:29;;;;;;;5.60;1.17;;;21.60;77.80;;;;;;5046729;28;20048;-67
2022/06/24 03:58:56;;;;;;;6.68;2.47;;;21.60;78.20;;;;;;5048872;28;20452;-67
2022/06/24 04:01:23;;;;;;;3.90;1.27;;;21.60;78.60;;;;;;5044984;28;20056;-67
2022/06/24 04:03:50;;;;;;;5.78;0.95;;;21.60;78.80;;;;;;5050539;28;20056;-69
2022/06/24 04:06:17;;;;;;;9.07;1.38;;;21.60;78.90;;;;;;5048894;28;20315;-69
2022/06/24 04:08:44;;;;;;;9.10;1.40;;;21.60;78.50;;;;;;5052779;28;20040;-66
2022/06/24 04:11:14;;;;;;;6.43;1.10;;;21.60;78.40;;;;;;5049822;28;20049;-67
2022/06/24 04:13:41;;;;;;;4.95;1.40;;;21.60;78.80;;;;;;5043255;28;20072;-68
2022/06/24 04:16:08;;;;;;;4.68;0.93;;;21.60;79.10;;;;;;5049090;28;20127;-69
2022/06/24 04:18:35;;;;;;;7.70;1.40;;;21.50;79.30;;;;;;5049094;28;20055;-69
2022/06/24 04:21:10;;;;;;;5.88;1.45;;;21.50;79.20;;;;;;5049618;28;20051;-71
2022/06/24 04:23:37;;;;;;;6.45;1.25;;;21.60;79.00;;;;;;5045259;28;20071;-66
2022/06/24 04:26:04;;;;;;;5.82;1.27;;;21.50;79.20;;;;;;5045762;28;20044;-70
2022/06/24 04:28:32;;;;;;;5.78;1.45;;;21.50;79.50;;;;;;5049874;28;20464;-68
2022/06/24 04:30:59;;;;;;;8.95;1.58;;;21.50;79.20;;;;;;5046280;28;20045;-68
2022/06/24 04:33:26;;;;;;;6.40;1.40;;;21.60;79.10;;;;;;5043349;28;20047;-71
2022/06/24 04:35:53;;;;;;;4.72;1.00;;;21.50;79.30;;;;;;5053405;28;20142;-68
2022/06/24 04:38:21;;;;;;;5.13;1.10;;;21.50;79.40;;;;;;5052720;28;20123;-70
2022/06/24 04:40:48;;;;;;;9.00;1.88;;;21.50;79.40;;;;;;5049148;28;20047;-68
2022/06/24 04:43:15;;;;;;;5.32;1.35;;;21.50;79.70;;;;;;5046120;28;20527;-67
2022/06/24 04:45:44;;;;;;;5.38;1.40;;;21.40;80.00;;;;;;5047658;28;20052;-69
2022/06/24 04:48:13;;;;;;;4.78;1.75;;;21.40;80.10;;;;;;5044914;28;20419;-67
2022/06/24 04:50:40;;;;;;;6.70;1.33;;;21.40;80.20;;;;;;5047232;28;20071;-67
2022/06/24 04:53:07;;;;;;;4.28;1.40;;;21.50;79.90;;;;;;5049171;28;20553;-69
2022/06/24 04:55:34;;;;;;;6.32;1.52;;;21.50;79.90;;;;;;5048871;28;20055;-68
2022/06/24 04:58:01;;;;;;;6.00;1.20;;;21.50;79.80;;;;;;5049570;28;20045;-67
2022/06/24 05:00:28;;;;;;;5.53;1.27;;;21.50;79.80;;;;;;5046954;28;20085;-70
2022/06/24 05:02:56;;;;;;;6.55;1.23;;;21.50;79.80;;;;;;5052538;28;20045;-70
2022/06/24 05:05:23;;;;;;;3.13;0.98;;;21.60;79.60;;;;;;5051979;28;20044;-70
2022/06/24 05:07:50;;;;;;;3.42;1.17;;;21.60;80.00;;;;;;5055051;28;20133;-67
2022/06/24 05:10:17;;;;;;;6.57;1.45;;;21.50;80.00;;;;;;5048030;28;20044;-70
2022/06/24 05:12:44;;;;;;;8.63;1.35;;;21.50;79.90;;;;;;5049549;28;20098;-66
2022/06/24 05:15:11;;;;;;;4.38;1.23;;;21.60;80.10;;;;;;5046871;28;20504;-66
2022/06/24 05:17:38;;;;;;;7.90;1.40;;;21.60;79.50;;;;;;5048247;28;20056;-69
2022/06/24 05:20:07;;;;;;;7.47;1.90;;;21.60;79.40;;;;;;5048087;28;20053;-69
2022/06/24 05:22:35;;;;;;;6.10;1.42;;;21.60;79.80;;;;;;5044116;28;20044;-65
2022/06/24 05:25:02;;;;;;;6.40;1.88;;;21.60;80.20;;;;;;5045479;28;20076;-68
2022/06/24 05:27:29;;;;;;;3.83;1.45;;;21.50;80.40;;;;;;5047293;28;20045;-70
2022/06/24 05:29:56;;;;;;;4.45;1.77;;;21.50;80.50;;;;;;5044735;28;20516;-67
2022/06/24 05:32:23;;;;;;;6.38;1.88;;;21.50;80.70;;;;;;5048885;28;20048;-66
2022/06/24 05:34:50;;;;;;;7.65;2.00;;;21.50;80.80;;;;;;5048537;28;20052;-66
2022/06/24 05:37:19;;;;;;;5.80;1.80;;;21.50;80.90;;;;;;5047080;28;20219;-67
2022/06/24 05:39:46;;;;;;;6.07;1.83;;;21.50;81.10;;;;;;5044954;28;20501;-69
2022/06/24 05:42:13;;;;;;;6.03;1.50;;;21.60;81.10;;;;;;5047638;28;20048;-69
2022/06/24 05:44:40;;;;;;;5.40;1.42;;;21.60;81.10;;;;;;5048418;28;20052;-68
2022/06/24 05:47:07;;;;;;;6.82;1.92;;;21.60;81.00;;;;;;5049308;28;20056;-67
2022/06/24 05:49:34;;;;;;;7.55;1.13;;;21.70;81.10;;;;;;5041509;28;20488;-69
2022/06/24 05:52:01;;;;;;;3.50;1.88;;;21.70;81.00;;;;;;5043612;28;20567;-71
2022/06/24 05:57:14;;;;;;;3.67;1.60;;;21.70;81.10;;;;;;5042003;28;20486;-69
2022/06/24 05:59:41;;;;;;;7.25;1.70;;;21.70;81.10;;;;;;5044130;28;20049;-67
2022/06/24 06:02:08;;;;;;;7.13;1.33;;;21.70;81.20;;;;;;5046984;28;20597;-70
2022/06/24 06:04:35;;;;;;;5.40;1.60;;;21.70;81.10;;;;;;5045901;28;20485;-68
2022/06/24 06:07:02;;;;;;;4.60;1.63;;;21.70;81.00;;;;;;5047199;28;20043;-67
2022/06/24 06:09:30;;;;;;;4.47;1.30;;;21.80;80.70;;;;;;5043922;28;20102;-71
2022/06/24 06:11:58;;;;;;;9.40;2.05;;;21.80;80.70;;;;;;5047044;28;20540;-66
2022/06/24 06:14:25;;;;;;;8.57;1.35;;;21.80;80.70;;;;;;5050655;28;20381;-67
2022/06/24 06:16:52;;;;;;;7.95;1.70;;;21.80;80.50;;;;;;5048113;28;20048;-66
2022/06/24 06:19:19;;;;;;;7.32;1.88;;;21.90;80.70;;;;;;5047497;28;20045;-70
2022/06/24 06:21:46;;;;;;;6.63;2.22;;;22.00;80.40;;;;;;5044882;28;20144;-70
2022/06/24 06:24:13;;;;;;;9.73;2.25;;;22.10;80.10;;;;;;5046218;28;20044;-71
2022/06/24 06:26:41;;;;;;;5.60;1.35;;;22.00;80.40;;;;;;5045761;28;20055;-68
2022/06/24 06:29:08;;;;;;;7.32;1.27;;;22.00;80.50;;;;;;5032655;28;20095;-67
2022/06/24 06:31:35;;;;;;;10.90;1.50;;;22.10;80.40;;;;;;5045672;28;20041;-69
2022/06/24 06:34:02;;;;;;;9.13;1.60;;;22.10;80.50;;;;;;5047596;28;20057;-67
2022/06/24 06:36:29;;;;;;;3.60;1.02;;;22.10;80.50;;;;;;5050115;28;20048;-69
2022/06/24 06:38:56;;;;;;;5.38;1.40;;;22.10;80.70;;;;;;5046611;28;20037;-70
2022/06/24 06:41:23;;;;;;;4.50;1.23;;;22.10;80.60;;;;;;5050634;28;20404;-65
2022/06/24 06:43:51;;;;;;;3.67;1.08;;;22.10;80.90;;;;;;5051934;28;20055;-70
2022/06/24 06:46:18;;;;;;;4.82;1.70;;;22.10;81.00;;;;;;5051574;28;20045;-67
2022/06/24 06:48:45;;;;;;;5.40;1.58;;;22.10;81.00;;;;;;5048663;28;20136;-67
2022/06/24 06:51:13;;;;;;;6.68;1.65;;;22.20;80.90;;;;;;5049052;28;20542;-71
2022/06/24 06:53:40;;;;;;;4.00;1.50;;;22.20;81.10;;;;;;5049830;28;20115;-69
2022/06/24 06:56:07;;;;;;;5.30;1.55;;;22.20;81.10;;;;;;5059115;28;20045;-67
2022/06/24 06:58:34;;;;;;;4.30;1.33;;;22.20;81.10;;;;;;5051658;28;20059;-68
2022/06/24 07:01:02;;;;;;;4.93;1.92;;;22.20;81.50;;;;;;5044986;28;20049;-66
2022/06/24 07:03:29;;;;;;;4.70;1.23;;;22.10;81.40;;;;;;5050381;28;20073;-68
2022/06/24 07:05:56;;;;;;;5.70;1.40;;;22.10;81.00;;;;;;5047664;28;20132;-69
2022/06/24 07:08:24;;;;;;;4.05;1.73;;;22.20;81.10;;;;;;5047207;28;20542;-66
2022/06/24 07:10:51;;;;;;;4.97;1.88;;;22.20;81.00;;;;;;5047512;28;20443;-66
2022/06/24 07:13:19;;;;;;;5.75;1.40;;;22.20;80.10;;;;;;5045736;28;20532;-70
2022/06/24 07:15:46;;;;;;;5.40;1.75;;;22.20;79.50;;;;;;5048963;28;20056;-71
2022/06/24 07:18:14;;;;;;;5.18;1.98;;;22.20;79.20;;;;;;5047505;28;20053;-66
2022/06/24 07:20:43;;;;;;;5.85;1.55;;;22.20;79.10;;;;;;5050833;28;20041;-70
2022/06/24 07:23:10;;;;;;;4.00;1.73;;;22.30;79.50;;;;;;5043486;28;20063;-67
2022/06/24 07:25:37;;;;;;;9.73;2.00;;;22.20;79.30;;;;;;5038602;28;20176;-67
2022/06/24 07:28:05;;;;;;;6.63;2.28;;;22.30;78.70;;;;;;5042200;28;20053;-68
2022/06/24 07:30:32;;;;;;;6.03;1.50;;;22.40;78.80;;;;;;5041228;28;20500;-67
2022/06/24 07:32:59;;;;;;;5.00;1.30;;;22.50;78.30;;;;;;5041606;28;20115;-68
2022/06/24 07:35:28;;;;;;;4.60;1.20;;;22.60;77.90;;;;;;5042999;28;20044;-70
2022/06/24 07:37:55;;;;;;;3.97;1.30;;;22.70;78.10;;;;;;5049322;28;20156;-68
2022/06/24 07:40:22;;;;;;;5.88;1.30;;;22.80;77.80;;;;;;5050095;28;20048;-67
2022/06/24 07:42:49;;;;;;;8.43;1.33;;;22.90;77.10;;;;;;5051928;28;20140;-70
2022/06/24 07:45:16;;;;;;;7.20;1.20;;;22.90;76.70;;;;;;5050946;28;20569;-69
2022/06/24 07:47:43;;;;;;;3.28;0.88;;;23.10;76.20;;;;;;5049541;28;20053;-68
2022/06/24 07:50:10;;;;;;;4.90;1.15;;;23.20;76.00;;;;;;5050839;28;20075;-70
2022/06/24 07:52:38;;;;;;;4.78;1.20;;;23.20;75.50;;;;;;5048976;28;20115;-66
2022/06/24 07:57:50;;;;;;;2.85;0.70;;;23.30;73.70;;;;;;5044957;27;20059;-70
2022/06/24 08:00:18;;;;;;;5.75;1.50;;;23.20;73.00;;;;;;5049535;28;20045;-67
2022/06/24 08:02:45;;;;;;;3.15;1.38;;;23.30;73.00;;;;;;5051903;28;20452;-68
2022/06/24 08:05:12;;;;;;;5.35;1.30;;;23.50;72.40;;;;;;5048149;28;20135;-66
2022/06/24 08:07:40;;;;;;;2.35;1.02;;;23.70;72.40;;;;;;5052229;28;20052;-70
2022/06/24 08:10:08;;;;;;;3.10;1.23;;;24.00;72.20;;;;;;5054560;28;20141;-67
2022/06/24 08:12:35;;;;;;;4.43;1.45;;;24.20;71.90;;;;;;5051468;28;20052;-69
2022/06/24 08:15:02;;;;;;;4.75;1.23;;;24.30;71.60;;;;;;5051366;28;20068;-69
2022/06/24 08:17:29;;;;;;;5.82;0.95;;;24.30;70.80;;;;;;5052018;28;20127;-72
2022/06/24 08:19:57;;;;;;;6.20;1.30;;;24.30;70.20;;;;;;5046458;28;20047;-68
2022/06/24 08:22:24;;;;;;;4.50;1.30;;;24.30;70.20;;;;;;5046844;28;20049;-67
2022/06/24 08:24:52;;;;;;;3.25;1.08;;;24.40;70.20;;;;;;5048657;28;20053;-70
2022/06/24 08:27:19;;;;;;;6.97;1.40;;;24.60;70.40;;;;;;5048710;28;20052;-66
2022/06/24 08:29:46;;;;;;;8.93;1.85;;;24.60;69.80;;;;;;5043408;28;20050;-69
2022/06/24 08:32:13;;;;;;;6.20;1.50;;;24.60;69.40;;;;;;5048795;28;20044;-64
2022/06/24 08:34:40;;;;;;;6.18;1.70;;;24.70;69.00;;;;;;5052943;28;20618;-65
2022/06/24 08:37:07;;;;;;;3.35;1.20;;;24.60;69.00;;;;;;5050630;28;20515;-65
2022/06/24 08:39:34;;;;;;;5.40;1.42;;;24.50;69.10;;;;;;5049545;28;21695;-67
2022/06/24 08:42:05;;;;;;;5.30;1.20;;;24.40;68.90;;;;;;5052933;28;20152;-69
2022/06/24 08:44:32;;;;;;;3.80;1.20;;;24.40;68.90;;;;;;5054649;28;20048;-70
2022/06/24 08:46:59;;;;;;;4.05;1.30;;;24.30;69.50;;;;;;5048164;28;20053;-64
2022/06/24 08:49:27;;;;;;;3.58;1.05;;;24.30;68.80;;;;;;5052627;28;20060;-68
2022/06/24 08:51:58;;;;;;;2.90;1.40;;;24.20;68.10;;;;;;5048965;28;20125;-66
2022/06/24 08:54:29;;;;;;;2.47;1.02;;;24.10;67.50;;;;;;5059425;28;20072;-71
2022/06/24 08:56:56;;;;;;;3.78;1.15;;;24.10;68.30;;;;;;5056100;28;20053;-73
2022/06/24 08:59:28;;;;;;;4.15;1.13;;;24.10;67.90;;;;;;5056539;28;20943;-70
2022/06/24 09:01:54;;;;;;;3.08;1.10;;;24.00;67.80;;;;;;5054322;28;20041;-67
2022/06/24 09:04:23;;;;;;;4.22;1.20;;;24.00;68.00;;;;;;5059100;28;20082;-70
2022/06/24 09:06:50;;;;;;;2.50;0.90;;;24.00;68.00;;;;;;5056557;28;22169;-67
2022/06/24 09:09:24;;;;;;;5.57;1.30;;;23.90;68.80;;;;;;5056667;28;20059;-66
2022/06/24 09:11:55;;;;;;;1.92;0.93;;;23.80;69.60;;;;;;5055010;28;20040;-70
2022/06/24 09:14:22;;;;;;;6.13;1.00;;;23.80;70.20;;;;;;5053680;28;20045;-66
2022/06/24 09:16:50;;;;;;;4.85;1.20;;;23.70;70.50;;;;;;5056082;28;20492;-70
2022/06/24 09:19:17;;;;;;;3.20;1.00;;;23.70;71.20;;;;;;5050125;28;20508;-66
2022/06/24 09:21:44;;;;;;;2.95;1.00;;;23.90;70.80;;;;;;5047523;28;20055;-68
2022/06/24 09:24:12;;;;;;;3.60;1.20;;;24.10;70.30;;;;;;5055028;28;20554;-68
2022/06/24 09:26:41;;;;;;;4.45;1.50;;;24.40;70.10;;;;;;5050282;28;20060;-66
2022/06/24 09:29:12;;;;;;;2.20;1.15;;;24.60;69.30;;;;;;5055235;28;20893;-67
2022/06/24 09:31:39;;;;;;;1.92;0.90;;;24.90;66.40;;;;;;5056889;28;20106;-68
2022/06/24 09:34:10;;;;;;;3.63;1.05;;;25.20;65.90;;;;;;5057959;28;20128;-68
2022/06/24 09:36:39;;;;;;;2.38;1.00;;;25.30;64.70;;;;;;5057956;28;20099;-68
2022/06/24 09:39:08;;;;;;;5.20;1.17;;;25.50;64.30;;;;;;5058979;28;20043;-69
2022/06/24 09:41:42;;;;;;;;;;;25.60;64.50;;;;;;5056918;28;20070;-66
2022/06/24 09:44:11;;;;;;;1.50;1.13;;;25.70;63.90;;;;;;5057459;28;19943;-71
2022/06/24 09:46:38;;;;;;;4.33;1.20;;;25.90;62.90;;;;;;5055197;28;20408;-69
2022/06/24 09:49:06;;;;;;;2.33;0.98;;;25.80;62.80;;;;;;5057439;28;20400;-69
2022/06/24 09:51:35;;;;;;;3.28;0.82;;;25.70;62.30;;;;;;5055951;28;20057;-66
2022/06/24 09:54:02;;;;;;;1.48;0.80;;;25.60;62.10;;;;;;5056823;28;20404;-70
2022/06/24 09:56:30;;;;;;;2.33;1.05;;;25.50;62.50;;;;;;5054556;28;20079;-67
2022/06/24 10:01:43;;;;;;;2.13;1.15;;;25.50;61.90;;;;;;5051550;28;20431;-68
2022/06/24 10:04:14;;;;;;;3.80;1.85;;;25.20;61.60;;;;;;5054567;28;20048;-66
2022/06/24 10:06:45;;;;;;;7.07;3.75;;;25.10;61.70;;;;;;5062255;28;20045;-66
2022/06/24 10:09:13;;;;;;;11.32;6.22;;;25.10;62.20;;;;;;5053034;28;20057;-71
2022/06/24 10:11:43;;;;;;;12.93;6.25;;;25.10;63.00;;;;;;5050943;28;20131;-66
2022/06/24 10:14:12;;;;;;;34.58;16.17;;;25.30;62.20;;;;;;5052752;28;20098;-70
2022/06/24 10:16:41;;;;;;;34.35;16.38;;;25.60;61.50;;;;;;5056771;28;20690;-66
2022/06/24 10:19:10;;;;;;;23.67;11.93;;;25.70;61.00;;;;;;5055418;28;20389;-69
2022/06/24 10:21:38;;;;;;;24.10;10.77;;;25.60;60.50;;;;;;5055069;28;20048;-67
2022/06/24 10:24:13;;;;;;;19.05;7.65;;;25.60;60.40;;;;;;5051721;28;20055;-70
2022/06/24 10:26:43;;;;;;;11.93;5.70;;;25.60;59.80;;;;;;5049616;28;20052;-68
2022/06/24 10:29:21;;;;;;;9.25;3.35;;;25.60;59.50;;;;;;5052008;28;20425;-67
2022/06/24 10:32:15;;;;;;;4.70;2.03;;;25.60;59.60;;;;;;5047323;28;20136;-69
2022/06/24 10:34:45;;;;;;;7.95;2.47;;;25.50;59.90;;;;;;5045769;28;20450;-65
2022/06/24 10:37:30;;;;;;;3.72;1.75;;;25.60;59.40;;;;;;5055742;28;20051;-66
2022/06/24 10:40:00;;;;;;;4.22;1.80;;;25.50;59.80;;;;;;5056980;28;20048;-70
2022/06/24 10:42:30;;;;;;;6.88;1.55;;;25.40;60.00;;;;;;5039640;28;20290;-69
2022/06/24 10:45:01;;;;;;;3.45;1.10;;;25.50;59.80;;;;;;5054907;28;20076;-70
2022/06/24 10:47:36;;;;;;;2.58;1.25;;;25.60;59.70;;;;;;5056735;28;20068;-66
2022/06/24 10:50:29;;;;;;;4.93;1.15;;;25.60;59.40;;;;;;5057489;28;20570;-66
2022/06/24 10:53:01;;;;;;;2.15;1.15;;;25.80;58.90;;;;;;5040205;28;20052;-66
2022/06/24 10:55:33;;;;;;;3.00;1.00;;;25.80;58.60;;;;;;5056416;28;20052;-67
2022/06/24 10:58:03;;;;;;;4.70;1.10;;;25.80;58.60;;;;;;5056360;28;20492;-65
2022/06/24 11:00:50;;;;;;;2.72;1.00;;;25.80;58.70;;;;;;5047725;28;20520;-68
2022/06/24 11:03:43;;;;;;;6.20;1.10;;;25.90;58.50;;;;;;5056609;28;20049;-66
2022/06/24 11:06:11;;;;;;;2.92;0.95;;;25.90;58.50;;;;;;5034941;28;20621;-69
2022/06/24 11:08:39;;;;;;;2.22;0.88;;;26.00;58.40;;;;;;5055000;28;20106;-66
2022/06/24 11:11:07;;;;;;;1.95;1.15;;;26.00;58.00;;;;;;5038170;28;20041;-70
2022/06/24 11:13:34;;;;;;;2.88;0.75;;;26.00;57.90;;;;;;5060631;28;20045;-67
2022/06/24 11:16:01;;;;;;;2.17;0.90;;;25.90;57.80;;;;;;5061949;28;20055;-66
2022/06/24 11:18:31;;;;;;;5.05;1.50;;;25.90;58.00;;;;;;5060591;28;20511;-66
2022/06/24 11:20:59;;;;;;;;;;;26.00;58.20;;;;;;5060774;28;20064;-67
2022/06/24 11:23:28;;;;;;;2.70;1.30;;;26.00;57.60;;;;;;5061069;28;20345;-66
2022/06/24 11:25:58;;;;;;;3.35;1.90;;;26.00;57.30;;;;;;5061295;28;20065;-69
2022/06/24 11:28:27;;;;;;;5.30;2.13;;;26.00;57.20;;;;;;5056306;28;20052;-66
2022/06/24 11:30:56;;;;;;;2.88;1.10;;;26.10;57.00;;;;;;5062362;28;20131;-70
2022/06/24 11:33:24;;;;;;;4.13;2.03;;;26.20;56.80;;;;;;5051940;28;20127;-67
2022/06/24 11:35:52;;;;;;;4.57;1.60;;;26.20;56.70;;;;;;5060408;28;20056;-69
2022/06/24 11:38:21;;;;;;;2.03;1.20;;;26.30;56.30;;;;;;5061438;28;20056;-66
2022/06/24 11:40:50;;;;;;;2.75;0.90;;;26.30;56.20;;;;;;5060888;28;20508;-67
2022/06/24 11:43:17;;;;;;;;;;;26.40;55.90;;;;;;5061765;28;20045;-69
2022/06/24 11:45:47;;;;;;;1.30;0.90;;;26.30;56.40;;;;;;5059346;28;20439;-71
2022/06/24 11:48:20;;;;;;;2.53;1.35;;;26.30;56.00;;;;;;5062222;28;20049;-66
2022/06/24 11:50:48;;;;;;;3.67;1.20;;;26.30;56.40;;;;;;5061730;28;20037;-69
2022/06/24 11:53:15;;;;;;;1.88;1.25;;;26.30;56.10;;;;;;5060717;28;20044;-71
2022/06/24 11:55:43;;;;;;;1.50;1.05;;;26.40;56.00;;;;;;5060963;28;20045;-67
2022/06/24 11:58:11;;;;;;;3.75;1.33;;;26.40;56.10;;;;;;5060161;28;20143;-68
2022/06/24 12:00:40;;;;;;;3.22;1.60;;;26.50;56.00;;;;;;5055694;28;20373;-68
2022/06/24 12:03:10;;;;;;;7.13;2.17;;;26.50;56.40;;;;;;5060762;28;20045;-71
2022/06/24 12:05:39;;;;;;;1.63;1.10;;;26.50;56.40;;;;;;5059946;28;20052;-69
2022/06/24 12:08:07;;;;;;;2.33;1.38;;;26.50;56.20;;;;;;5062458;28;20040;-69
2022/06/24 12:10:35;;;;;;;3.28;1.50;;;26.40;55.90;;;;;;5059550;28;20477;-66
2022/06/24 12:13:05;;;;;;;4.28;1.40;;;26.50;55.90;;;;;;5060366;28;20056;-69
2022/06/24 12:15:53;;;;;;;1.95;1.25;;;26.60;55.60;;;;;;5060421;28;20041;-67
2022/06/24 12:18:23;;;;;;;2.00;1.20;;;26.60;55.40;;;;;;5058578;28;20049;-70
2022/06/24 12:20:59;;;;;;;4.30;1.23;;;26.60;55.40;;;;;;5058719;28;20056;-68
2022/06/24 12:23:30;;;;;;;5.13;1.48;;;26.60;55.40;;;;;;5058954;28;20052;-67
2022/06/24 12:25:58;;;;;;;1.58;0.95;;;26.70;55.60;;;;;;5059443;28;20044;-67
2022/06/24 12:28:26;;;;;;;2.38;1.40;;;26.80;55.20;;;;;;5058058;28;20158;-68
2022/06/24 12:31:01;;;;;;;2.40;1.27;;;26.80;55.50;;;;;;5058206;28;20052;-66
2022/06/24 12:33:31;;;;;;;1.55;1.00;;;26.70;55.40;;;;;;5060215;28;20040;-70
2022/06/24 12:36:08;;;;;;;2.05;1.10;;;26.70;55.20;;;;;;5059009;28;20045;-70
2022/06/24 12:38:36;;;;;;;4.05;1.20;;;26.80;55.40;;;;;;5057734;28;20041;-70
2022/06/24 12:41:08;;;;;;;2.25;1.20;;;26.80;55.00;;;;;;5059222;28;20049;-68
2022/06/24 12:43:35;;;;;;;1.05;0.90;;;26.70;55.10;;;;;;5059023;28;20547;-69
2022/06/24 12:46:05;;;;;;;2.47;1.00;;;26.70;55.00;;;;;;5058134;28;20049;-69
2022/06/24 12:51:25;;;;;;;2.90;1.30;;;26.90;54.60;;;;;;5058572;28;20109;-70
2022/06/24 12:53:54;;;;;;;3.03;1.50;;;26.90;54.40;;;;;;5059769;28;20051;-67
2022/06/24 12:56:21;;;;;;;5.28;1.45;;;26.90;55.00;;;;;;5059177;28;20044;-66
2022/06/24 12:58:51;;;;;;;2.50;1.30;;;26.80;54.70;;;;;;5060623;28;20048;-66
2022/06/24 13:01:18;;;;;;;2.35;1.40;;;26.80;54.70;;;;;;5056452;28;20041;-68
2022/06/24 13:03:47;;;;;;;3.53;1.38;;;26.80;54.80;;;;;;5060563;28;20127;-66
2022/06/24 13:06:14;;;;;;;3.03;0.85;;;26.70;54.40;;;;;;5052132;28;20048;-70
2022/06/24 13:08:42;;;;;;;2.28;1.10;;;26.60;53.90;;;;;;5060416;28;20131;-66
2022/06/24 13:11:09;;;;;;;1.65;1.10;;;26.60;54.10;;;;;;5056298;28;20404;-66
2022/06/24 13:13:36;;;;;;;3.63;0.80;;;26.50;54.40;;;;;;5060059;28;20037;-66